Aviation Digital Data Service (ADDS)

Output produced by METARs form (0040 UTC 21 February 2017)
found at http://aviationweather.gov/adds/metars/
 
KYNG 202324Z 2100/2124 08005KT P6SM OVC250 
     FM210900 14007KT P6SM OVC250 
     FM211500 16010KT P6SM OVC200 
     FM212200 18008KT P6SM OVC080